Time;durP1;ratioP1;P1;durP2;ratioP2;P2;SDS_P1;SDS_P2;PMS_P1;PMS_P2;Temp;Humidity;BMP_temperature;BMP_pressure;BME280_temperature;BME280_humidity;BME280_pressure;Samples;Min_cycle;Max_cycle;Signal;HPM_P1;HPM_P2
2022/06/20 00:01:30;;;;;;;2.80;1.95;;;;;;;22.17;54.89;99498.83;1800015;77;21028;-84
2022/06/20 00:03:56;;;;;;;4.33;2.17;;;;;;;22.14;54.81;99496.61;1739968;79;22002;-83
2022/06/20 00:06:23;;;;;;;3.33;2.10;;;;;;;22.10;54.80;99500.89;1784493;79;21063;-84
2022/06/20 00:08:51;;;;;;;4.35;2.40;;;;;;;22.09;54.90;99499.23;1779024;78;21061;-86
2022/06/20 00:11:24;;;;;;;3.35;2.15;;;;;;;22.05;54.86;99496.75;1771364;78;21594;-85
2022/06/20 00:13:53;;;;;;;4.90;2.50;;;;;;;22.03;54.83;99495.38;1799362;79;21571;-86
2022/06/20 00:16:21;;;;;;;4.90;2.62;;;;;;;21.99;54.79;99502.62;1773859;78;21037;-84
2022/06/20 00:18:48;;;;;;;2.50;2.30;;;;;;;21.97;54.75;99500.70;1785153;78;20980;-83
2022/06/20 00:21:20;;;;;;;3.27;2.25;;;;;;;21.96;54.72;99500.94;1786234;78;20997;-82
2022/06/20 00:23:46;;;;;;;4.47;2.27;;;;;;;21.95;54.68;99507.44;1793726;77;21006;-84
2022/06/20 00:26:14;;;;;;;3.00;2.30;;;;;;;21.92;54.92;99498.45;1774217;80;21008;-83
2022/06/20 00:28:41;;;;;;;4.22;2.45;;;;;;;21.88;54.71;99497.31;1784828;79;21100;-83
2022/06/20 00:31:07;;;;;;;3.02;2.20;;;;;;;21.84;54.45;99502.94;1733003;81;21123;-82
2022/06/20 00:33:34;;;;;;;6.20;2.72;;;;;;;21.81;54.43;99500.21;1770884;78;21009;-84
2022/06/20 00:36:03;;;;;;;2.70;2.45;;;;;;;21.78;54.18;99514.21;1781077;78;21482;-83
2022/06/20 00:38:30;;;;;;;3.12;2.55;;;;;;;21.76;54.46;99508.23;1802113;78;21235;-83
2022/06/20 00:41:00;;;;;;;3.62;2.42;;;;;;;21.71;54.31;99504.93;1790969;78;21489;-84
2022/06/20 00:43:33;;;;;;;3.40;2.10;;;;;;;21.69;54.34;99504.87;1779887;78;20961;-83
2022/06/20 00:46:04;;;;;;;2.92;2.22;;;;;;;21.67;54.44;99502.44;1810498;78;21001;-82
2022/06/20 00:48:42;;;;;;;3.12;2.83;;;;;;;21.64;54.26;99493.46;1800065;78;21493;-85
2022/06/20 00:51:24;;;;;;;2.60;2.20;;;;;;;21.63;54.23;99493.16;1777123;78;21516;-84
2022/06/20 00:54:00;;;;;;;3.52;2.25;;;;;;;21.62;54.07;99484.78;1722734;79;21059;-83
2022/06/20 00:56:34;;;;;;;3.55;2.22;;;;;;;21.60;53.87;99501.23;1799249;78;20981;-83
2022/06/20 00:59:07;;;;;;;3.50;2.35;;;;;;;21.60;53.66;99493.67;1793511;78;21048;-81
2022/06/20 01:01:38;;;;;;;2.75;2.22;;;;;;;21.59;53.84;99485.27;1809679;77;21060;-81
2022/06/20 01:04:15;;;;;;;2.58;2.25;;;;;;;21.54;53.97;99481.96;1810174;77;21057;-83
2022/06/20 01:06:50;;;;;;;4.00;2.25;;;;;;;21.48;54.41;99484.30;1802560;77;21815;-81
2022/06/20 01:09:18;;;;;;;4.50;2.12;;;;;;;21.37;54.66;99475.71;1807078;77;21083;-84
2022/06/20 01:11:49;;;;;;;3.12;1.92;;;;;;;21.28;54.66;99479.88;1815738;77;21009;-83
2022/06/20 01:14:24;;;;;;;2.40;2.10;;;;;;;21.23;54.66;99477.92;1818238;77;21607;-83
2022/06/20 01:16:52;;;;;;;4.03;2.10;;;;;;;21.21;54.81;99470.59;1837919;77;21011;-84
2022/06/20 01:19:33;;;;;;;3.05;2.25;;;;;;;21.18;54.66;99471.07;1804236;77;21239;-83
2022/06/20 01:22:00;;;;;;;3.90;2.50;;;;;;;21.15;54.54;99470.20;1800749;77;21022;-84
2022/06/20 01:24:32;;;;;;;3.75;2.02;;;;;;;21.14;54.77;99469.92;1809607;77;21037;-81
2022/06/20 01:27:25;;;;;;;4.10;2.35;;;;;;;21.10;54.61;99464.73;1806739;77;21009;-80
2022/06/20 01:29:52;;;;;;;3.45;2.25;;;;;;;21.05;54.76;99467.33;1818468;77;20954;-79
2022/06/20 01:32:18;;;;;;;3.20;2.20;;;;;;;20.99;54.89;99458.31;1816272;77;21198;-79
2022/06/20 01:34:45;;;;;;;2.98;2.10;;;;;;;20.97;55.00;99464.49;1820712;77;21022;-78
2022/06/20 01:37:25;;;;;;;3.80;2.40;;;;;;;20.94;55.11;99467.16;1813391;77;21064;-77
2022/06/20 01:40:00;;;;;;;2.92;2.00;;;;;;;20.89;55.13;99473.80;1824480;77;21006;-80
2022/06/20 01:42:28;;;;;;;2.85;2.50;;;;;;;20.85;55.08;99470.49;1815398;77;21006;-84
2022/06/20 01:45:03;;;;;;;2.58;2.25;;;;;;;20.82;55.23;99465.03;1816944;77;21197;-81
2022/06/20 01:47:31;;;;;;;2.77;2.50;;;;;;;20.79;55.12;99464.99;1803114;77;21498;-82
2022/06/20 01:50:05;;;;;;;3.45;2.60;;;;;;;20.77;55.74;99464.95;1819490;77;20996;-84
2022/06/20 01:52:37;;;;;;;3.60;2.45;;;;;;;20.71;55.47;99469.97;1807959;77;21112;-80
2022/06/20 01:55:16;;;;;;;2.42;1.90;;;;;;;20.68;55.53;99471.80;1805204;77;21501;-79
2022/06/20 01:57:46;;;;;;;2.22;2.05;;;;;;;20.67;55.29;99459.34;1829036;77;21127;-77
2022/06/20 02:00:18;;;;;;;2.62;2.37;;;;;;;20.68;55.35;99467.75;1805716;77;21080;-77
2022/06/20 02:02:59;;;;;;;8.23;2.60;;;;;;;20.65;55.38;99458.27;1800823;77;21138;-79
2022/06/20 02:05:29;;;;;;;2.33;2.00;;;;;;;20.65;55.46;99460.12;1759982;79;21026;-79
2022/06/20 02:08:01;;;;;;;2.50;2.25;;;;;;;20.64;55.41;99462.55;1798322;78;21023;-76
2022/06/20 02:10:37;;;;;;;2.40;2.20;;;;;;;20.61;55.49;99470.06;1798201;77;20989;-77
2022/06/20 02:13:04;;;;;;;7.80;2.45;;;;;;;20.59;55.58;99468.14;1839581;77;21016;-80
2022/06/20 02:15:31;;;;;;;4.25;2.30;;;;;;;20.56;55.65;99476.67;1819464;77;21032;-79
2022/06/20 02:18:01;;;;;;;2.75;2.05;;;;;;;20.55;55.57;99479.60;1811244;77;21630;-78
2022/06/20 02:20:30;;;;;;;2.62;1.80;;;;;;;20.52;55.62;99483.61;1812765;77;21060;-75
2022/06/20 02:22:57;;;;;;;4.03;2.33;;;;;;;20.49;55.61;99482.73;1817818;77;21867;-76
2022/06/20 02:25:29;;;;;;;5.20;2.00;;;;;;;20.49;55.54;99485.42;1808582;77;20970;-78
2022/06/20 02:28:08;;;;;;;4.53;2.10;;;;;;;20.48;55.53;99490.55;1758258;80;21086;-78
2022/06/20 02:30:35;;;;;;;4.12;2.98;;;;;;;20.46;55.53;99488.63;1804110;77;22010;-79
2022/06/20 02:33:25;;;;;;;3.50;2.02;;;;;;;20.45;55.31;99487.50;1826843;77;21008;-79
2022/06/20 02:35:53;;;;;;;4.37;2.30;;;;;;;20.42;55.20;99494.20;1799276;77;21539;-80
2022/06/20 02:38:21;;;;;;;2.27;2.05;;;;;;;20.44;55.30;99494.78;1795106;78;20986;-80
2022/06/20 02:40:50;;;;;;;2.45;2.15;;;;;;;20.45;55.16;99497.76;1810692;77;20961;-80
2022/06/20 02:43:21;;;;;;;2.67;2.30;;;;;;;20.45;54.97;99509.09;1806633;77;20972;-81
2022/06/20 02:45:48;;;;;;;3.50;2.37;;;;;;;20.45;55.02;99496.95;1841198;77;20994;-81
2022/06/20 02:48:16;;;;;;;5.33;2.10;;;;;;;20.43;55.03;99496.64;1822935;77;21051;-81
2022/06/20 02:50:53;;;;;;;4.08;2.40;;;;;;;20.44;54.98;99505.58;1805335;77;20978;-79
2022/06/20 02:53:37;;;;;;;2.15;1.70;;;;;;;20.42;54.62;99527.93;1814805;77;21001;-80
2022/06/20 02:56:05;;;;;;;2.40;2.17;;;;;;;20.42;54.75;99505.00;1820731;77;21484;-79
2022/06/20 02:58:33;;;;;;;3.90;2.58;;;;;;;20.43;54.72;99525.51;1775999;77;21074;-78
2022/06/20 03:01:07;;;;;;;2.58;2.35;;;;;;;20.44;54.37;99517.72;1824782;77;21113;-76
2022/06/20 03:03:38;;;;;;;3.17;2.10;;;;;;;20.46;54.25;99517.48;1823211;77;21461;-78
2022/06/20 03:06:08;;;;;;;2.15;1.95;;;;;;;20.48;54.46;99512.67;1838970;77;21051;-77
2022/06/20 03:08:35;;;;;;;3.65;1.90;;;;;;;20.48;54.61;99518.88;1797075;77;21040;-78
2022/06/20 03:11:04;;;;;;;6.85;2.52;;;;;;;20.48;54.68;99509.44;1760893;77;21040;-77
2022/06/20 03:13:33;;;;;;;3.60;2.12;;;;;;;20.46;54.62;99514.25;1812347;77;21012;-77
2022/06/20 03:16:01;;;;;;;2.58;2.25;;;;;;;20.46;54.51;99518.30;1815331;77;21138;-77
2022/06/20 03:18:28;;;;;;;3.52;2.10;;;;;;;20.46;54.82;99518.30;1831620;77;21037;-78
2022/06/20 03:20:56;;;;;;;4.30;2.33;;;;;;;20.48;54.96;99521.58;1831608;77;21060;-77
2022/06/20 03:23:29;;;;;;;2.58;1.90;;;;;;;20.46;54.69;99525.05;1802338;77;21069;-79
2022/06/20 03:25:58;;;;;;;2.58;2.08;;;;;;;20.48;54.87;99522.92;1829943;77;22352;-78
2022/06/20 03:28:25;;;;;;;2.40;2.00;;;;;;;20.48;54.95;99524.27;1837142;77;21006;-75
2022/06/20 03:30:52;;;;;;;2.92;2.10;;;;;;;20.47;54.85;99528.02;1843154;77;20997;-78
2022/06/20 03:33:21;;;;;;;2.52;1.80;;;;;;;20.48;54.95;99525.62;1817996;77;21069;-76
2022/06/20 03:35:54;;;;;;;3.65;2.20;;;;;;;20.48;54.83;99525.62;1805732;77;21029;-77
2022/06/20 03:38:22;;;;;;;3.77;2.22;;;;;;;20.50;54.89;99525.39;1822716;77;21158;-79
2022/06/20 03:40:49;;;;;;;2.85;2.00;;;;;;;20.52;54.92;99523.27;1825059;77;21049;-76
2022/06/20 03:43:19;;;;;;;5.53;2.20;;;;;;;20.53;54.68;99517.64;1813845;77;20961;-79
2022/06/20 03:46:10;;;;;;;3.08;2.02;;;;;;;20.57;54.64;99517.95;1803210;77;20990;-76
2022/06/20 03:48:44;;;;;;;2.58;2.37;;;;;;;20.60;54.54;99510.24;1823867;77;21089;-78
2022/06/20 03:51:20;;;;;;;4.53;2.55;;;;;;;20.65;54.38;99504.65;1814181;79;21285;-80
2022/06/20 03:54:04;;;;;;;3.85;2.27;;;;;;;20.70;54.48;99500.71;1820052;77;21083;-78
2022/06/20 03:56:36;;;;;;;4.85;2.55;;;;;;;20.74;54.34;99497.81;1794058;77;21180;-80
2022/06/20 03:59:12;;;;;;;3.37;2.10;;;;;;;20.80;54.23;99487.40;1820787;77;21063;-80
2022/06/20 04:01:58;;;;;;;5.60;2.27;;;;;;;20.86;54.13;99492.36;1806909;77;21048;-81
2022/06/20 04:04:50;;;;;;;2.45;2.22;;;;;;;20.91;53.74;99485.72;1803163;77;21125;-80
2022/06/20 04:07:22;;;;;;;2.87;2.00;;;;;;;20.97;53.74;99478.80;1801099;77;21038;-81
2022/06/20 04:13:15;;;;;;;4.37;1.80;;;;;;;21.10;53.54;99468.78;1817630;77;21020;-81
2022/06/20 04:15:56;;;;;;;5.05;2.30;;;;;;;21.15;53.44;99465.64;1825817;77;21024;-82
2022/06/20 04:18:40;;;;;;;2.90;1.87;;;;;;;21.20;53.39;99458.95;1822083;77;21096;-80
2022/06/20 04:21:21;;;;;;;2.42;2.20;;;;;;;21.25;52.96;99453.34;1792356;77;21025;-79
2022/06/20 04:24:13;;;;;;;3.58;2.17;;;;;;;21.31;53.08;99442.92;1815937;77;21117;-79
2022/06/20 04:26:57;;;;;;;2.87;2.42;;;;;;;21.37;52.84;99437.34;1796971;77;21016;-75
2022/06/20 04:29:36;;;;;;;2.72;2.10;;;;;;;21.46;52.72;99443.70;1791723;77;20997;-76
2022/06/20 04:32:14;;;;;;;2.67;2.17;;;;;;;21.53;52.59;99438.95;1795428;77;21549;-77
2022/06/20 04:34:51;;;;;;;2.75;1.90;;;;;;;21.62;52.50;99430.72;1805410;77;20998;-77
2022/06/20 04:37:35;;;;;;;4.75;2.87;;;;;;;21.72;52.31;99426.80;1802549;77;21006;-78
2022/06/20 04:40:23;;;;;;;4.62;2.37;;;;;;;21.84;51.96;99412.36;1802179;79;21046;-77
2022/06/20 04:42:57;;;;;;;3.52;2.52;;;;;;;21.95;51.50;99416.30;1817716;77;21012;-78
2022/06/20 04:45:47;;;;;;;2.42;2.22;;;;;;;22.09;51.64;99409.97;1797074;77;21172;-79
2022/06/20 04:48:20;;;;;;;5.62;2.77;;;;;;;22.21;51.36;99415.80;1804240;77;20991;-78
2022/06/20 04:50:57;;;;;;;4.17;2.22;;;;;;;22.31;50.80;99411.36;1822277;77;20985;-75
2022/06/20 04:53:28;;;;;;;2.98;2.42;;;;;;;22.39;50.60;99411.45;1816788;77;21022;-76
2022/06/20 04:55:57;;;;;;;3.47;2.20;;;;;;;22.51;50.88;99408.59;1794404;77;21131;-77
2022/06/20 04:58:37;;;;;;;2.58;2.27;;;;;;;22.57;50.45;99402.96;1803269;78;21124;-78
2022/06/20 05:01:04;;;;;;;3.62;2.37;;;;;;;22.64;50.54;99405.48;1812916;77;21049;-79
2022/06/20 05:03:36;;;;;;;2.67;2.45;;;;;;;22.73;50.62;99404.47;1764601;77;21537;-77
2022/06/20 05:06:04;;;;;;;4.15;2.42;;;;;;;22.82;50.62;99398.06;1796375;77;21122;-78
2022/06/20 05:08:36;;;;;;;6.67;2.42;;;;;;;22.93;50.29;99396.54;1811602;77;21048;-78
2022/06/20 05:11:11;;;;;;;2.75;2.40;;;;;;;23.03;49.93;99412.64;1825289;77;21183;-76
2022/06/20 05:13:54;;;;;;;3.72;2.72;;;;;;;23.13;50.17;99405.94;1821804;77;21076;-76
2022/06/20 05:16:25;;;;;;;4.67;2.40;;;;;;;23.23;50.24;99408.72;1818251;77;21126;-79
2022/06/20 05:18:58;;;;;;;3.20;2.20;;;;;;;23.36;49.94;99407.46;1819275;77;21492;-80
2022/06/20 05:21:29;;;;;;;4.60;2.60;;;;;;;23.46;49.82;99417.55;1811210;77;21564;-78
2022/06/20 05:23:58;;;;;;;4.00;2.10;;;;;;;23.56;50.00;99418.97;1811718;77;21310;-80
2022/06/20 05:26:29;;;;;;;3.35;2.22;;;;;;;23.70;50.06;99415.25;1806588;77;21542;-79
2022/06/20 05:28:58;;;;;;;4.77;2.80;;;;;;;23.81;49.62;99402.61;1814511;77;21055;-77
2022/06/20 05:31:39;;;;;;;3.62;2.70;;;;;;;23.90;48.94;99405.91;1741832;80;21055;-77
2022/06/20 05:34:29;;;;;;;2.90;2.20;;;;;;;23.96;48.98;99405.39;1738992;80;21061;-76
2022/06/20 05:37:07;;;;;;;2.22;2.02;;;;;;;23.99;48.89;99403.52;1777047;79;21535;-77
2022/06/20 05:39:53;;;;;;;5.15;2.40;;;;;;;24.03;48.66;99401.06;1784749;79;21033;-78
2022/06/20 05:42:19;;;;;;;4.03;2.77;;;;;;;24.06;47.96;99405.42;1756262;79;21048;-77
2022/06/20 05:44:47;;;;;;;4.37;2.55;;;;;;;24.09;48.15;99400.84;1769853;79;21050;-77
2022/06/20 05:47:34;;;;;;;2.50;2.30;;;;;;;24.13;47.93;99410.08;1766947;79;21568;-78
2022/06/20 05:50:06;;;;;;;3.30;2.50;;;;;;;24.16;47.03;99414.14;1773276;79;21178;-78
2022/06/20 05:52:32;;;;;;;5.28;2.47;;;;;;;24.19;47.12;99407.39;1774656;79;21034;-77
2022/06/20 05:55:16;;;;;;;2.80;2.10;;;;;;;24.22;46.79;99393.27;1777181;79;21076;-77
2022/06/20 05:57:43;;;;;;;3.20;2.27;;;;;;;24.23;46.60;99386.77;1772003;79;21062;-79
2022/06/20 06:00:19;;;;;;;5.08;2.35;;;;;;;24.26;46.64;99382.15;1777033;79;21034;-80
2022/06/20 06:02:57;;;;;;;3.17;2.30;;;;;;;24.31;46.61;99365.89;1750928;79;21127;-79
2022/06/20 06:05:35;;;;;;;2.75;1.90;;;;;;;24.42;46.71;99353.97;1747707;81;21141;-79
2022/06/20 06:08:23;;;;;;;2.85;2.45;;;;;;;24.51;47.01;99351.56;1754759;80;21022;-79
2022/06/20 06:11:07;;;;;;;3.02;2.22;;;;;;;24.64;47.18;99354.30;1759413;80;21092;-79
2022/06/20 06:13:49;;;;;;;4.70;2.50;;;;;;;24.77;45.63;99351.59;1733615;79;21061;-78
2022/06/20 06:16:52;;;;;;;3.15;2.40;;;;;;;24.86;46.18;99351.30;1760923;79;21158;-79
2022/06/20 06:19:30;;;;;;;3.65;2.20;;;;;;;24.96;45.76;99328.78;1750331;79;21037;-78
2022/06/20 06:22:10;;;;;;;6.45;2.30;;;;;;;25.05;45.20;99334.75;1752700;80;21557;-76
2022/06/20 06:24:40;;;;;;;2.90;2.17;;;;;;;25.11;44.39;99321.41;1766212;79;21085;-79
2022/06/20 06:27:07;;;;;;;2.30;2.10;;;;;;;25.09;43.89;99319.52;1755857;79;21054;-78
2022/06/20 06:30:00;;;;;;;2.52;1.90;;;;;;;25.17;43.71;99330.37;1751956;80;21148;-77
2022/06/20 06:32:32;;;;;;;2.90;2.22;;;;;;;25.24;44.04;99322.77;1766488;80;26101;-75
2022/06/20 06:35:22;;;;;;;3.20;2.22;;;;;;;25.33;44.23;99316.78;1751844;79;21065;-76
2022/06/20 06:38:04;;;;;;;2.70;2.30;;;;;;;25.41;43.85;99324.38;1819007;77;21521;-77
2022/06/20 06:40:47;;;;;;;3.43;2.33;;;;;;;25.56;43.94;99318.88;1821930;77;21077;-77
2022/06/20 06:43:21;;;;;;;4.75;2.05;;;;;;;25.56;43.94;99318.88;1805728;77;22231;-75
2022/06/20 06:45:50;;;;;;;5.67;2.58;;;;;;;25.65;43.48;99324.02;1813151;77;21045;-76
2022/06/20 06:48:23;;;;;;;3.27;2.12;;;;;;;25.73;43.26;99305.47;1805431;77;21006;-76
2022/06/20 06:50:58;;;;;;;3.90;2.17;;;;;;;25.76;42.01;99331.58;1803225;77;21049;-75
2022/06/20 06:53:39;;;;;;;2.22;2.00;;;;;;;25.74;42.32;99306.56;1799315;77;21018;-75
2022/06/20 06:56:31;;;;;;;2.33;2.12;;;;;;;25.72;43.01;99284.27;1805922;77;21197;-79
2022/06/20 06:59:18;;;;;;;1.98;1.82;;;;;;;25.79;43.19;99288.06;1813070;77;21003;-75
2022/06/20 07:01:48;;;;;;;2.20;2.00;;;;;;;25.87;42.50;99294.27;1800220;77;21037;-77
2022/06/20 07:04:36;;;;;;;3.90;2.20;;;;;;;25.97;42.65;99284.71;1811085;77;21005;-79
2022/06/20 07:07:34;;;;;;;3.22;2.25;;;;;;;26.07;42.73;99293.36;1802241;77;21028;-74
2022/06/20 07:10:02;;;;;;;4.03;2.25;;;;;;;26.16;41.94;99279.98;1811373;77;21065;-76
2022/06/20 07:12:45;;;;;;;4.35;2.20;;;;;;;26.17;42.01;99289.20;1796723;77;21080;-78
2022/06/20 07:15:16;;;;;;;3.33;1.80;;;;;;;26.20;41.81;99277.77;1789900;77;21517;-76
2022/06/20 07:17:59;;;;;;;5.40;1.95;;;;;;;26.25;41.81;99298.16;1800958;77;21085;-77
2022/06/20 07:20:30;;;;;;;2.00;1.55;;;;;;;26.31;41.66;99288.05;1801753;78;21635;-79
2022/06/20 07:22:58;;;;;;;4.22;2.10;;;;;;;26.40;41.57;99298.58;1810882;77;21078;-76
2022/06/20 07:25:35;;;;;;;2.77;1.90;;;;;;;26.44;41.09;99292.02;1807361;77;21042;-81
2022/06/20 07:28:15;;;;;;;2.62;2.10;;;;;;;26.46;41.15;99315.17;1811764;77;20997;-85
2022/06/20 07:30:47;;;;;;;2.83;1.95;;;;;;;26.53;41.15;99295.77;1745545;80;21100;-82
2022/06/20 07:33:26;;;;;;;3.67;2.20;;;;;;;26.60;40.85;99288.12;1807473;77;21085;-86
2022/06/20 07:35:56;;;;;;;2.87;2.27;;;;;;;26.68;41.03;99301.13;1807166;77;21127;-85
2022/06/20 07:38:29;;;;;;;2.60;2.08;;;;;;;26.73;40.34;99294.00;1813874;77;21053;-83
2022/06/20 07:41:00;;;;;;;3.47;1.95;;;;;;;26.74;40.51;99301.89;1792637;77;21493;-85
2022/06/20 07:43:50;;;;;;;7.65;1.75;;;;;;;26.78;40.46;99299.41;1808396;77;21002;-87
2022/06/20 07:46:22;;;;;;;3.02;2.30;;;;;;;26.81;40.39;99296.09;1796778;77;20973;-82
2022/06/20 07:48:49;;;;;;;4.42;2.02;;;;;;;26.91;40.76;99287.02;1807302;77;21076;-86
2022/06/20 07:51:23;;;;;;;4.58;2.12;;;;;;;27.02;40.80;99275.75;1813301;77;21001;-84
2022/06/20 07:54:01;;;;;;;2.70;2.20;;;;;;;27.18;40.59;99272.86;1796999;78;21597;-77
2022/06/20 07:56:37;;;;;;;3.12;1.80;;;;;;;27.32;39.88;99282.55;1797418;78;21057;-77
2022/06/20 07:59:12;;;;;;;2.02;1.65;;;;;;;27.40;39.41;99328.27;1798693;78;21017;-77
2022/06/20 08:01:53;;;;;;;3.47;2.08;;;;;;;27.39;39.00;99289.28;1740249;80;21141;-76
2022/06/20 08:04:27;;;;;;;2.02;1.80;;;;;;;27.39;39.26;99291.17;1771375;78;21706;-75
2022/06/20 08:07:08;;;;;;;5.55;1.98;;;;;;;27.36;38.91;99311.66;1741976;80;21088;-75
2022/06/20 08:09:58;;;;;;;4.50;2.02;;;;;;;27.34;39.26;99293.42;1801769;78;21474;-77
2022/06/20 08:12:50;;;;;;;2.30;1.65;;;;;;;27.36;39.21;99274.05;1752154;81;21011;-77
2022/06/20 08:15:26;;;;;;;3.40;1.80;;;;;;;27.37;39.36;99292.85;1754921;81;21260;-77
2022/06/20 08:18:54;;;;;;;2.22;2.02;;;;;;;27.49;39.04;99297.89;1788346;78;23401;-76
2022/06/20 08:21:31;;;;;;;2.27;2.08;;;;;;;27.53;39.24;99289.95;1760895;80;21079;-80
2022/06/20 08:24:04;;;;;;;4.25;2.00;;;;;;;27.58;39.10;99274.86;1766731;80;21150;-76
2022/06/20 08:26:42;;;;;;;3.50;1.72;;;;;;;27.68;39.22;99273.91;1779762;80;20994;-75
2022/06/20 08:29:23;;;;;;;4.47;2.10;;;;;;;27.80;39.15;99283.87;1762736;80;21511;-77
2022/06/20 08:31:52;;;;;;;3.12;2.27;;;;;;;27.91;38.94;99273.11;1768672;80;21075;-78
2022/06/20 08:34:32;;;;;;;4.58;2.27;;;;;;;27.99;39.10;99251.96;1764866;80;21065;-79
2022/06/20 08:37:17;;;;;;;2.62;1.90;;;;;;;28.14;38.84;99259.66;1771867;80;21843;-80
2022/06/20 08:39:52;;;;;;;2.60;2.30;;;;;;;28.27;38.70;99267.09;1764067;80;21053;-78
2022/06/20 08:43:02;;;;;;;2.12;1.92;;;;;;;28.41;38.51;99271.24;1772736;80;21252;-77
2022/06/20 08:45:43;;;;;;;2.95;2.20;;;;;;;28.51;38.19;99291.63;1767949;80;21072;-76
2022/06/20 08:48:49;;;;;;;2.00;1.87;;;;;;;28.56;38.25;99262.02;1778198;80;21108;-76
2022/06/20 08:51:30;;;;;;;4.15;2.08;;;;;;;28.63;38.32;99278.85;1771927;80;21452;-76
2022/06/20 08:54:13;;;;;;;2.20;2.00;;;;;;;28.73;38.28;99284.13;1761018;80;21123;-77
2022/06/20 08:57:22;;;;;;;2.35;2.00;;;;;;;28.86;38.26;99254.39;1767690;80;21048;-76
2022/06/20 08:59:58;;;;;;;2.55;1.80;;;;;;;29.00;38.04;99251.13;1763238;80;21092;-79
2022/06/20 09:02:48;;;;;;;2.27;2.08;;;;;;;29.17;38.02;99245.91;1767512;80;21037;-77
2022/06/20 09:05:44;;;;;;;2.42;1.98;;;;;;;29.36;38.00;99229.39;1773355;80;21872;-82
2022/06/20 09:09:06;;;;;;;5.22;2.27;;;;;;;29.57;37.71;99248.09;1775004;80;21013;-79
2022/06/20 09:12:01;;;;;;;2.63;2.30;;;;;;;29.74;37.41;99235.98;1772007;80;20974;-79
2022/06/20 09:14:38;;;;;;;3.27;1.98;;;;;;;29.91;37.13;99238.07;1771376;80;21005;-78
2022/06/20 09:17:26;;;;;;;3.25;2.17;;;;;;;30.06;37.18;99225.16;1771387;80;21018;-79
2022/06/20 09:20:19;;;;;;;3.02;2.33;;;;;;;30.19;36.96;99225.63;1753996;80;21110;-74
2022/06/20 09:23:25;;;;;;;2.80;2.12;;;;;;;30.36;36.66;99222.24;1761613;80;21018;-76
2022/06/20 09:26:07;;;;;;;2.00;1.90;;;;;;;30.62;36.18;99222.95;1760162;80;21070;-78
2022/06/20 09:29:06;;;;;;;6.12;2.10;;;;;;;30.87;35.81;99214.64;1749144;80;21086;-77
2022/06/20 09:31:47;;;;;;;2.25;2.05;;;;;;;31.18;35.88;99210.50;1756029;80;21021;-80
2022/06/20 09:34:59;;;;;;;3.35;2.20;;;;;;;31.71;35.27;99208.67;1747994;80;21099;-80
2022/06/20 09:37:51;;;;;;;2.87;2.50;;;;;;;32.16;34.50;99224.05;1757240;80;21006;-80
2022/06/20 09:40:40;;;;;;;2.03;1.93;;;;;;;32.49;34.11;99238.06;1763550;80;21074;-79
2022/06/20 09:43:49;;;;;;;2.20;1.98;;;;;;;32.55;33.56;99206.53;1759041;80;21127;-79
2022/06/20 09:46:42;;;;;;;3.80;2.12;;;;;;;32.71;33.22;99231.58;1748404;80;21053;-81
2022/06/20 09:49:28;;;;;;;;;;;;;;;32.89;33.29;99205.61;1747175;80;21132;-82
2022/06/20 09:52:13;;;;;;;2.37;2.15;;;;;;;33.23;33.24;99211.33;1762590;80;20139;-79
2022/06/20 09:54:54;;;;;;;6.15;2.08;;;;;;;33.58;32.58;99206.97;1758994;80;21612;-83
2022/06/20 09:58:03;;;;;;;4.10;2.12;;;;;;;33.88;32.60;99201.66;1768149;80;21026;-80
2022/06/20 10:00:47;;;;;;;3.52;2.02;;;;;;;34.18;32.01;99211.22;1758140;80;21062;-81
2022/06/20 10:03:38;;;;;;;2.40;2.20;;;;;;;34.17;32.29;99203.28;1757714;80;22140;-79
2022/06/20 10:06:36;;;;;;;2.65;2.05;;;;;;;34.27;32.13;99198.75;1768711;80;21034;-84
2022/06/20 10:09:24;;;;;;;2.02;1.70;;;;;;;34.37;31.42;99207.16;1753795;80;21161;-78
2022/06/20 10:12:04;;;;;;;2.30;2.08;;;;;;;34.42;31.30;99213.27;1738603;80;21521;-82
2022/06/20 10:15:05;;;;;;;1.85;1.67;;;;;;;34.50;31.52;99187.30;1762276;80;21042;-82
2022/06/20 10:17:55;;;;;;;;;;;;;;;34.68;31.50;99169.44;1763231;80;21225;-81
2022/06/20 10:20:50;;;;;;;1.90;1.80;;;;;;;35.06;31.04;99179.34;1722583;82;20191;-81
2022/06/20 10:23:54;;;;;;;7.08;1.90;;;;;;;35.08;30.65;99177.59;1727942;82;21129;-82
2022/06/20 10:26:58;;;;;;;4.00;2.17;;;;;;;35.06;30.61;99189.00;1735252;81;21096;-80
2022/06/20 10:29:54;;;;;;;1.98;1.87;;;;;;;35.10;30.77;99164.25;1714370;83;21012;-84
2022/06/20 10:32:42;;;;;;;3.10;2.25;;;;;;;35.39;30.76;99161.84;1729307;82;21788;-83
2022/06/20 10:35:49;;;;;;;4.40;1.90;;;;;;;35.63;30.45;99170.05;1713019;82;21128;-82
2022/06/20 10:38:42;;;;;;;2.67;1.85;;;;;;;35.76;30.63;99170.85;1717644;82;21057;-81
2022/06/20 10:41:18;;;;;;;4.25;2.20;;;;;;;36.01;29.99;99158.32;1660829;85;21091;-82
2022/06/20 10:44:19;;;;;;;4.65;1.95;;;;;;;35.98;29.90;99193.56;1678194;85;21089;-77
2022/06/20 10:47:09;;;;;;;3.22;1.55;;;;;;;35.72;30.24;99178.23;1680664;85;21187;-80
2022/06/20 10:50:09;;;;;;;2.33;2.12;;;;;;;35.66;30.28;99163.59;1729237;82;21044;-80
2022/06/20 10:53:11;;;;;;;2.08;1.82;;;;;;;35.61;30.32;99154.98;1722156;82;21108;-78
2022/06/20 10:55:56;;;;;;;3.52;1.90;;;;;;;35.65;30.08;99158.66;1741729;82;21047;-77
2022/06/20 10:59:02;;;;;;;2.47;1.82;;;;;;;35.90;30.18;99153.07;1727466;82;21076;-77
2022/06/20 11:01:51;;;;;;;2.80;1.80;;;;;;;36.33;29.79;99148.72;1654474;85;22123;-78
2022/06/20 11:04:54;;;;;;;3.20;1.98;;;;;;;36.74;29.36;99141.07;1663521;85;21578;-77
2022/06/20 11:07:38;;;;;;;2.20;1.98;;;;;;;37.10;28.81;99136.38;1624752;82;21112;-78
2022/06/20 11:10:36;;;;;;;3.45;1.90;;;;;;;37.43;28.59;99114.38;1736147;82;21076;-81
2022/06/20 11:13:24;;;;;;;1.90;1.80;;;;;;;37.69;28.55;99131.17;1717457;82;21019;-77
2022/06/20 11:16:07;;;;;;;4.83;1.80;;;;;;;37.79;28.18;99125.63;1717527;82;21094;-79
2022/06/20 11:18:39;;;;;;;3.37;2.05;;;;;;;37.94;28.31;99121.17;1719477;82;21075;-82
2022/06/20 11:21:40;;;;;;;6.35;1.80;;;;;;;38.11;27.72;99121.28;1769489;80;21592;-78
2022/06/20 11:24:24;;;;;;;3.47;1.80;;;;;;;38.10;27.69;99116.34;1767835;80;21104;-77
2022/06/20 11:27:09;;;;;;;2.92;1.90;;;;;;;37.98;27.77;99117.87;1752197;80;21071;-79
2022/06/20 11:29:56;;;;;;;3.25;1.90;;;;;;;37.83;27.98;99106.30;1768337;80;21130;-76
2022/06/20 11:32:40;;;;;;;2.50;1.70;;;;;;;37.95;27.99;99106.91;1765899;80;21026;-79
2022/06/20 11:35:18;;;;;;;5.03;2.00;;;;;;;38.09;27.72;99116.70;1753974;80;21562;-77
2022/06/20 11:38:13;;;;;;;2.58;1.92;;;;;;;38.06;27.70;99126.53;1757122;80;21087;-78
2022/06/20 11:40:49;;;;;;;2.72;1.90;;;;;;;37.94;27.63;99121.96;1736248;82;21531;-79
2022/06/20 11:43:30;;;;;;;2.42;1.95;;;;;;;37.54;27.64;99100.95;1720634;82;21110;-79
2022/06/20 11:46:20;;;;;;;2.12;1.80;;;;;;;37.36;28.37;99093.67;1768502;80;21151;-79
2022/06/20 11:49:24;;;;;;;2.72;1.62;;;;;;;37.63;28.07;99096.63;1765419;80;21093;-80
2022/06/20 11:52:12;;;;;;;2.50;1.90;;;;;;;38.05;27.94;99094.42;1689355;83;21054;-82
2022/06/20 11:55:23;;;;;;;2.00;1.80;;;;;;;38.33;27.53;99089.99;1699599;83;21578;-80
2022/06/20 11:58:15;;;;;;;2.12;1.62;;;;;;;38.41;27.68;99087.34;1715613;83;21547;-80
2022/06/20 12:00:50;;;;;;;2.72;2.08;;;;;;;38.78;27.52;99081.20;1773144;80;21033;-80
2022/06/20 12:03:35;;;;;;;2.50;1.80;;;;;;;39.16;26.97;99080.19;1748624;80;21050;-80
2022/06/20 12:06:09;;;;;;;2.02;1.90;;;;;;;39.45;26.44;99088.31;1768017;79;21065;-80
2022/06/20 12:08:41;;;;;;;2.12;2.00;;;;;;;39.50;26.30;99074.66;1757294;80;21096;-79
2022/06/20 12:11:34;;;;;;;3.45;2.00;;;;;;;39.53;26.16;99069.74;1720670;82;21178;-86
2022/06/20 12:14:17;;;;;;;2.33;2.00;;;;;;;39.46;26.34;99066.28;1773483;80;20923;-86
2022/06/20 12:17:33;;;;;;;2.20;2.00;;;;;;;39.58;26.13;99067.20;1759410;80;21045;-84
2022/06/20 12:23:31;;;;;;;1.65;1.55;;;;;;;39.57;26.14;99055.89;1754489;80;21117;-83
2022/06/20 12:26:23;;;;;;;4.03;1.77;;;;;;;39.44;26.06;99055.34;1745723;80;21426;-85
2022/06/20 12:28:51;;;;;;;3.62;1.80;;;;;;;39.35;26.26;99045.90;1749208;80;21128;-85
2022/06/20 12:31:31;;;;;;;1.92;1.70;;;;;;;39.32;26.65;99048.03;1752527;80;21085;-85
2022/06/20 12:34:42;;;;;;;2.25;1.95;;;;;;;39.41;26.52;99036.05;1755361;80;21070;-84
2022/06/20 12:37:23;;;;;;;2.95;1.80;;;;;;;39.41;26.48;99033.86;1745762;80;21046;-85
2022/06/20 12:40:13;;;;;;;2.52;2.00;;;;;;;39.36;26.56;99036.97;1766032;80;21472;-83